Time,TemperatureF,DewpointF,PressureIn,WindDirection,WindDirectionDegrees,WindSpeedMPH,WindSpeedGustMPH,Humidity,HourlyPrecipIn,Conditions,Clouds,dailyrainin,SoftwareType,DateUTC
2013-08-13 00:42:00,58.0,58.0,-100.00,NNE,20,1.0,2.0,99,0.00,,,-99.99,,2013-08-13 05:42:00,
2013-08-13 03:21:00,53.0,53.0,-100.00,NNE,20,0.0,1.0,99,0.00,,,-99.99,,2013-08-13 08:21:00,
2013-08-13 03:42:00,53.0,53.0,-100.00,NNE,20,1.0,2.0,99,0.00,,,-99.99,,2013-08-13 08:42:00,
2013-08-13 05:23:00,51.0,51.0,-100.00,North,10,2.0,2.0,99,0.00,,,-99.99,,2013-08-13 10:23:00,
2013-08-13 05:42:00,50.0,50.0,-100.00,NNE,25,0.0,1.0,99,0.00,,,-99.99,,2013-08-13 10:42:00,
2013-08-13 06:42:00,50.0,50.0,-100.00,NNW,340,2.0,3.0,99,0.00,,,-99.99,,2013-08-13 11:42:00,
2013-08-13 07:21:00,50.0,50.0,-100.00,NNE,20,1.0,2.0,99,0.00,,,-99.99,,2013-08-13 12:21:00,
2013-08-13 07:42:00,52.0,52.0,-100.00,NE,40,1.0,2.0,99,0.00,,,-99.99,,2013-08-13 12:42:00,
2013-08-13 08:21:00,54.0,54.0,-100.00,NNE,15,1.0,2.0,99,0.00,,,-99.99,,2013-08-13 13:21:00,
2013-08-13 08:42:00,56.0,56.0,-100.00,NE,40,1.0,1.0,99,0.00,,,-99.99,,2013-08-13 13:42:00,
2013-08-13 09:21:00,62.0,62.0,-100.00,East,100,0.0,1.0,99,0.00,,,-99.99,,2013-08-13 14:21:00,
2013-08-13 09:42:00,65.0,63.0,-100.00,NE,35,1.0,2.0,94,0.00,,,-99.99,,2013-08-13 14:42:00,
2013-08-13 11:23:00,72.0,62.0,-100.00,NNW,345,2.0,5.0,70,0.00,,,-99.99,,2013-08-13 16:23:00,
2013-08-13 12:45:00,-999.0,-99.9,-100.00,North,0,3.0,7.0,64,0.00,,,-99.99,,2013-08-13 17:45:00,
2013-08-13 14:24:00,78.0,59.0,-100.00,SE,135,2.0,12.0,51,0.00,,,-99.99,,2013-08-13 19:24:00,
2013-08-13 14:44:00,78.0,59.0,-100.00,ESE,110,4.0,9.0,50,0.00,,,-99.99,,2013-08-13 19:44:00,
2013-08-13 15:22:00,78.0,59.0,-100.00,ENE,75,6.0,9.0,53,0.00,,,-99.99,,2013-08-13 20:22:00,
2013-08-13 15:45:00,79.0,59.0,-100.00,East,100,6.0,10.0,51,0.00,,,-99.99,,2013-08-13 20:45:00,
2013-08-13 16:46:00,78.0,58.0,-100.00,East,80,6.0,11.0,49,0.00,,,-99.99,,2013-08-13 21:46:00,
2013-08-13 18:26:00,78.0,58.0,-100.00,ENE,60,6.0,9.0,48,0.00,,,-99.99,,2013-08-13 23:26:00,
2013-08-13 19:22:00,76.0,57.0,-100.00,East,100,4.0,9.0,51,0.00,,,-99.99,,2013-08-14 00:22:00,
2013-08-13 19:42:00,75.0,57.0,-100.00,East,90,4.0,9.0,53,0.00,,,-99.99,,2013-08-14 00:42:00,
2013-08-13 20:21:00,72.0,56.0,-100.00,East,95,5.0,8.0,57,0.00,,,-99.99,,2013-08-14 01:21:00,
2013-08-13 20:42:00,69.0,56.0,-100.00,East,95,3.0,6.0,62,0.00,,,-99.99,,2013-08-14 01:42:00,